Time;durP1;ratioP1;P1;durP2;ratioP2;P2;SDS_P1;SDS_P2;PMS_P1;PMS_P2;Temp;Humidity;BMP_temperature;BMP_pressure;BME280_temperature;BME280_humidity;BME280_pressure;Samples;Min_cycle;Max_cycle;Signal;HPM_P1;HPM_P2
2023/09/09 00:02:04;;;;;;;0.13;0.13;;;;;;;15.98;72.80;97740.28;5006465;28;20060;-68
2023/09/09 00:04:32;;;;;;;0.20;0.20;;;;;;;16.00;72.47;97746.25;5005622;28;20505;-68
2023/09/09 00:07:03;;;;;;;0.20;0.20;;;;;;;16.06;72.20;97740.78;4996877;28;20100;-68
2023/09/09 00:09:32;;;;;;;0.17;0.17;;;;;;;15.96;72.53;97739.69;5009584;28;20877;-68
2023/09/09 00:12:00;;;;;;;0.22;0.22;;;;;;;15.94;72.48;97739.91;5001292;28;20043;-68
2023/09/09 00:14:29;;;;;;;0.17;0.17;;;;;;;15.97;72.29;97738.63;5002194;28;20042;-67
2023/09/09 00:16:57;;;;;;;0.10;0.10;;;;;;;15.75;73.02;97736.38;5009448;28;20041;-67
2023/09/09 00:19:27;;;;;;;0.13;0.13;;;;;;;15.76;73.05;97737.22;5005717;28;20050;-68
2023/09/09 00:21:56;;;;;;;0.22;0.22;;;;;;;15.67;73.30;97736.69;5002524;28;20053;-69
2023/09/09 00:24:23;;;;;;;0.13;0.13;;;;;;;15.72;72.96;97728.75;4997159;28;20045;-68
2023/09/09 00:26:54;;;;;;;0.10;0.10;;;;;;;15.80;72.84;97738.38;5007779;28;20049;-68
2023/09/09 00:29:22;;;;;;;0.13;0.13;;;;;;;15.71;73.19;97724.41;4999707;28;20051;-67
2023/09/09 00:31:50;;;;;;;0.10;0.10;;;;;;;15.69;73.42;97731.88;5005807;28;20038;-67
2023/09/09 00:34:18;;;;;;;0.10;0.10;;;;;;;15.71;73.14;97737.03;5007329;28;20049;-68
2023/09/09 00:36:46;;;;;;;0.13;0.13;;;;;;;15.74;72.93;97739.28;4995534;28;20043;-68
2023/09/09 00:39:13;;;;;;;0.05;0.05;;;;;;;15.73;72.96;97735.78;4999647;28;20498;-68
2023/09/09 00:41:41;;;;;;;0.20;0.20;;;;;;;15.71;72.67;97731.66;5001426;28;20038;-70
2023/09/09 00:44:10;;;;;;;0.13;0.13;;;;;;;15.53;73.16;97739.69;5001843;28;20454;-68
2023/09/09 00:46:38;;;;;;;0.10;0.10;;;;;;;15.49;73.33;97730.41;5005177;28;20125;-67
2023/09/09 00:49:06;;;;;;;0.20;0.20;;;;;;;15.31;73.57;97732.03;4998324;28;20042;-67
2023/09/09 00:51:37;;;;;;;0.20;0.20;;;;;;;15.35;73.10;97733.25;5003195;28;20053;-67
2023/09/09 00:54:05;;;;;;;0.10;0.10;;;;;;;15.20;73.55;97726.56;5008001;28;20096;-67
2023/09/09 00:56:34;;;;;;;0.20;0.20;;;;;;;15.09;73.83;97717.34;5007339;28;20501;-67
2023/09/09 00:59:01;;;;;;;0.13;0.13;;;;;;;15.00;74.16;97730.25;5005175;28;20046;-67
2023/09/09 01:01:32;;;;;;;0.10;0.10;;;;;;;15.02;74.12;97736.22;5006335;28;20089;-67
2023/09/09 01:04:01;;;;;;;0.13;0.13;;;;;;;14.90;74.33;97712.97;5007523;28;20560;-67
2023/09/09 01:06:29;;;;;;;0.15;0.15;;;;;;;14.87;74.74;97721.44;5003671;28;20054;-67
2023/09/09 01:08:56;;;;;;;0.22;0.22;;;;;;;15.01;74.05;97718.44;5000204;28;20085;-67
2023/09/09 01:11:24;;;;;;;0.13;0.13;;;;;;;14.88;74.27;97713.16;5005342;28;20412;-67
2023/09/09 01:13:52;;;;;;;0.13;0.13;;;;;;;14.84;74.48;97716.53;5005344;28;20458;-67
2023/09/09 01:16:19;;;;;;;0.22;0.22;;;;;;;14.96;74.02;97704.84;5007113;28;20401;-67
2023/09/09 01:18:49;;;;;;;0.30;0.30;;;;;;;14.95;74.43;97710.44;5010170;28;20034;-67
2023/09/09 01:21:17;;;;;;;0.20;0.20;;;;;;;14.88;74.30;97712.34;5000327;28;20038;-67
2023/09/09 01:23:46;;;;;;;0.13;0.13;;;;;;;14.87;74.97;97714.22;5002957;28;20443;-67
2023/09/09 01:26:14;;;;;;;0.22;0.22;;;;;;;15.02;73.99;97712.03;5005841;28;20045;-67
2023/09/09 01:28:42;;;;;;;0.13;0.13;;;;;;;14.90;74.14;97704.91;5004670;28;20039;-67
2023/09/09 01:31:12;;;;;;;0.13;0.13;;;;;;;14.89;74.09;97714.00;5006740;28;20050;-67
2023/09/09 01:33:40;;;;;;;0.17;0.17;;;;;;;14.70;75.09;97707.75;5000369;28;20076;-67
2023/09/09 01:36:09;;;;;;;0.13;0.13;;;;;;;14.82;74.54;97714.06;5005097;28;20042;-67
2023/09/09 01:38:37;;;;;;;0.20;0.20;;;;;;;14.63;75.15;97706.97;5006002;28;20041;-67
2023/09/09 01:41:06;;;;;;;0.13;0.13;;;;;;;14.63;74.90;97712.34;5003244;28;20121;-67
2023/09/09 01:43:35;;;;;;;0.20;0.20;;;;;;;14.65;74.79;97710.25;5005399;28;20052;-67
2023/09/09 01:46:03;;;;;;;0.35;0.35;;;;;;;14.63;74.84;97709.66;5007067;28;20425;-67
2023/09/09 01:48:31;;;;;;;0.20;0.20;;;;;;;14.58;74.68;97710.28;5000265;28;20045;-67
2023/09/09 01:50:59;;;;;;;0.22;0.22;;;;;;;14.69;74.05;97706.91;5001144;28;20068;-67
2023/09/09 01:53:27;;;;;;;0.13;0.13;;;;;;;14.47;74.84;97712.84;5017626;23;20050;-72
2023/09/09 01:55:56;;;;;;;0.13;0.13;;;;;;;14.42;75.05;97713.50;5017008;28;20045;-71
2023/09/09 01:58:25;;;;;;;0.30;0.30;;;;;;;14.38;75.19;97703.38;4990766;28;20736;-71
2023/09/09 02:00:52;;;;;;;0.10;0.10;;;;;;;14.54;74.69;97710.94;4991903;28;20046;-71
2023/09/09 02:03:21;;;;;;;0.30;0.30;;;;;;;14.62;74.31;97714.22;4973488;28;20046;-71
2023/09/09 02:05:49;;;;;;;0.15;0.15;;;;;;;14.60;74.45;97710.91;4994894;28;20106;-71
2023/09/09 02:08:18;;;;;;;0.20;0.20;;;;;;;14.65;74.31;97708.38;4992960;28;20117;-71
2023/09/09 02:10:49;;;;;;;0.25;0.25;;;;;;;14.53;74.71;97704.78;4971751;28;20049;-71
2023/09/09 02:13:17;;;;;;;0.15;0.15;;;;;;;14.52;74.79;97707.66;4972717;28;20534;-71
2023/09/09 02:15:46;;;;;;;0.20;0.20;;;;;;;14.47;74.86;97702.94;4974923;28;20065;-71
2023/09/09 02:18:14;;;;;;;0.13;0.13;;;;;;;14.47;74.95;97708.31;4994218;28;20041;-72
2023/09/09 02:20:41;;;;;;;0.10;0.10;;;;;;;14.32;75.40;97711.28;4978993;28;20144;-72
2023/09/09 02:23:10;;;;;;;0.13;0.13;;;;;;;14.56;74.25;97701.63;4976933;28;20077;-73
2023/09/09 02:25:38;;;;;;;0.20;0.20;;;;;;;14.39;74.91;97705.03;4973707;28;20068;-73
2023/09/09 02:28:06;;;;;;;0.22;0.22;;;;;;;14.34;75.34;97706.47;4993626;28;20042;-72
2023/09/09 02:30:33;;;;;;;0.13;0.13;;;;;;;14.42;75.03;97704.63;4973633;28;20570;-72
2023/09/09 02:33:02;;;;;;;0.03;0.03;;;;;;;14.43;75.05;97706.28;4991802;28;20050;-72
2023/09/09 02:35:31;;;;;;;0.10;0.10;;;;;;;14.40;75.26;97699.47;4990396;28;20052;-71
2023/09/09 02:37:58;;;;;;;0.22;0.22;;;;;;;14.51;74.54;97706.00;4978066;28;20093;-72
2023/09/09 02:40:26;;;;;;;0.25;0.25;;;;;;;14.39;75.11;97707.72;4971601;28;20122;-72
2023/09/09 02:42:54;;;;;;;0.08;0.08;;;;;;;14.30;75.08;97709.84;4988754;28;20054;-72
2023/09/09 02:45:21;;;;;;;0.22;0.22;;;;;;;14.23;75.58;97709.84;4977596;28;20050;-72
2023/09/09 02:47:49;;;;;;;0.10;0.10;;;;;;;14.19;75.55;97710.50;4995002;28;20038;-72
2023/09/09 02:50:18;;;;;;;0.13;0.13;;;;;;;14.14;75.51;97718.38;4978021;28;20138;-72
2023/09/09 02:52:48;;;;;;;0.20;0.20;;;;;;;14.03;75.94;97717.19;4974379;28;20559;-72
2023/09/09 02:55:16;;;;;;;0.10;0.03;;;;;;;14.02;75.95;97718.22;4994339;28;20077;-72
2023/09/09 02:57:47;;;;;;;0.30;0.30;;;;;;;14.08;75.84;97717.38;4978338;28;20038;-72
2023/09/09 03:00:16;;;;;;;0.22;0.22;;;;;;;14.08;75.43;97721.91;4976076;28;20412;-72
2023/09/09 03:02:45;;;;;;;0.13;0.13;;;;;;;14.15;75.30;97710.09;4979281;28;20462;-71
2023/09/09 03:05:13;;;;;;;0.20;0.20;;;;;;;14.08;75.50;97712.00;4989636;28;20038;-71
2023/09/09 03:07:44;;;;;;;0.25;0.25;;;;;;;13.93;76.01;97719.50;4996324;28;20082;-71
2023/09/09 03:10:12;;;;;;;0.13;0.13;;;;;;;13.84;76.16;97715.41;4977875;28;20046;-72
2023/09/09 03:12:40;;;;;;;0.10;0.10;;;;;;;13.75;76.85;97728.22;4976876;28;20042;-69
2023/09/09 03:15:09;;;;;;;0.10;0.10;;;;;;;13.90;76.22;97717.25;4995680;28;20042;-70
2023/09/09 03:17:37;;;;;;;0.22;0.22;;;;;;;13.94;75.77;97718.47;4972821;28;20089;-70
2023/09/09 03:20:06;;;;;;;0.10;0.10;;;;;;;14.04;75.58;97715.31;4986699;28;20417;-71
2023/09/09 03:22:34;;;;;;;0.22;0.22;;;;;;;13.92;75.38;97717.84;4988843;28;20061;-73
2023/09/09 03:25:03;;;;;;;0.17;0.17;;;;;;;14.00;75.02;97720.31;4972251;28;20070;-72
2023/09/09 03:27:32;;;;;;;0.15;0.15;;;;;;;13.89;75.22;97718.28;4991701;28;20068;-72
2023/09/09 03:30:00;;;;;;;0.15;0.15;;;;;;;13.83;75.29;97719.13;4974043;28;20420;-72
2023/09/09 03:32:29;;;;;;;0.30;0.30;;;;;;;13.82;75.55;97725.53;4988725;28;20512;-73
2023/09/09 03:34:57;;;;;;;0.22;0.22;;;;;;;13.77;75.58;97720.81;4972777;28;20842;-72
2023/09/09 03:37:25;;;;;;;0.13;0.13;;;;;;;13.74;75.58;97721.22;4989413;28;21421;-72
2023/09/09 03:39:53;;;;;;;0.13;0.13;;;;;;;13.63;75.27;97723.72;4971379;28;20049;-72
2023/09/09 03:42:22;;;;;;;0.13;0.13;;;;;;;13.58;75.44;97719.84;4991435;28;20050;-72
2023/09/09 03:44:50;;;;;;;0.20;0.20;;;;;;;13.51;75.67;97727.06;4977883;28;20046;-70
2023/09/09 03:47:18;;;;;;;0.32;0.32;;;;;;;13.35;75.74;97724.81;4972958;28;20042;-72
2023/09/09 03:49:46;;;;;;;0.22;0.22;;;;;;;13.29;75.77;97725.66;4973093;28;20034;-70
2023/09/09 03:52:13;;;;;;;0.22;0.22;;;;;;;13.36;75.50;97717.63;4995057;28;20046;-71
2023/09/09 03:54:41;;;;;;;0.22;0.22;;;;;;;13.48;75.44;97724.81;4987759;28;20038;-71
2023/09/09 03:57:09;;;;;;;0.20;0.20;;;;;;;13.44;75.05;97722.75;4974007;28;20096;-72
2023/09/09 03:59:38;;;;;;;0.13;0.13;;;;;;;13.28;75.93;97721.34;4976774;28;20038;-71
2023/09/09 04:02:06;;;;;;;0.40;0.40;;;;;;;13.13;76.20;97720.69;4992099;28;20502;-73
2023/09/09 04:04:34;;;;;;;0.13;0.13;;;;;;;13.21;75.87;97728.56;4991894;28;20433;-71
2023/09/09 04:07:01;;;;;;;0.22;0.22;;;;;;;13.15;76.12;97724.03;4973138;28;20051;-71
2023/09/09 04:09:29;;;;;;;0.20;0.20;;;;;;;13.10;76.27;97719.25;4976616;28;20509;-70
2023/09/09 04:11:57;;;;;;;0.10;0.10;;;;;;;13.20;75.95;97718.84;4991188;28;20614;-71
2023/09/09 04:14:25;;;;;;;0.35;0.35;;;;;;;13.16;76.04;97712.28;4986697;28;20050;-72
2023/09/09 04:16:54;;;;;;;0.30;0.30;;;;;;;13.07;76.07;97724.22;4991313;28;20069;-72
2023/09/09 04:19:22;;;;;;;0.20;0.20;;;;;;;13.07;76.39;97725.03;4987530;28;20034;-72
2023/09/09 04:21:51;;;;;;;0.22;0.22;;;;;;;13.10;76.04;97723.78;4992929;28;20038;-72
2023/09/09 04:24:19;;;;;;;0.22;0.22;;;;;;;13.17;75.77;97721.97;4974737;28;20104;-72
2023/09/09 04:26:47;;;;;;;0.32;0.32;;;;;;;13.07;76.26;97721.53;4969301;28;20445;-72
2023/09/09 04:29:15;;;;;;;0.20;0.20;;;;;;;13.15;76.37;97719.50;4969528;28;20395;-71
2023/09/09 04:31:43;;;;;;;0.40;0.10;;;;;;;13.15;76.19;97721.34;4990240;28;20101;-71
2023/09/09 04:34:12;;;;;;;0.20;0.20;;;;;;;13.03;76.18;97718.44;4986985;28;20391;-72
2023/09/09 04:36:41;;;;;;;0.20;0.20;;;;;;;12.93;76.28;97717.19;4974915;28;20042;-73
2023/09/09 04:39:09;;;;;;;0.03;0.03;;;;;;;13.11;75.95;97728.94;4987912;28;20039;-70
2023/09/09 04:41:37;;;;;;;0.22;0.22;;;;;;;13.05;75.95;97718.25;4990460;28;20105;-71
2023/09/09 04:44:06;;;;;;;0.15;0.15;;;;;;;13.12;75.96;97714.50;4990184;28;20050;-72
2023/09/09 04:46:33;;;;;;;0.32;0.32;;;;;;;13.08;76.16;97720.50;4989075;28;20088;-72
2023/09/09 04:49:01;;;;;;;0.30;0.30;;;;;;;13.05;75.97;97723.59;4987102;28;20041;-71
2023/09/09 04:51:31;;;;;;;0.35;0.35;;;;;;;12.93;76.41;97717.19;4973394;28;20054;-72
2023/09/09 04:54:01;;;;;;;0.40;0.40;;;;;;;12.93;76.46;97720.72;4990074;28;20046;-71
2023/09/09 04:56:29;;;;;;;0.03;0.03;;;;;;;12.98;76.63;97722.78;4992243;28;20042;-72
2023/09/09 04:58:57;;;;;;;0.30;0.30;;;;;;;13.03;76.51;97728.34;4976026;28;20050;-72
2023/09/09 05:01:25;;;;;;;0.22;0.22;;;;;;;12.87;76.11;97725.03;4974371;28;20050;-72
2023/09/09 05:03:53;;;;;;;0.10;0.10;;;;;;;12.82;76.29;97727.50;4974049;28;20126;-71
2023/09/09 05:06:21;;;;;;;0.08;0.08;;;;;;;12.83;76.41;97729.16;4972895;28;20035;-73
2023/09/09 05:08:50;;;;;;;0.15;0.15;;;;;;;12.88;76.40;97729.34;4972533;28;20105;-72
2023/09/09 05:11:18;;;;;;;0.30;0.30;;;;;;;12.86;76.28;97727.94;4988222;28;20097;-73
2023/09/09 05:13:45;;;;;;;0.22;0.22;;;;;;;12.85;76.36;97727.09;4971583;28;20786;-72
2023/09/09 05:16:14;;;;;;;0.10;0.10;;;;;;;12.88;76.22;97726.66;4970068;28;20093;-72
2023/09/09 05:18:41;;;;;;;0.32;0.32;;;;;;;12.95;76.12;97728.53;4987171;28;20065;-72
2023/09/09 05:21:09;;;;;;;0.15;0.15;;;;;;;12.98;76.01;97722.78;4988697;28;20034;-71
2023/09/09 05:23:37;;;;;;;0.22;0.22;;;;;;;13.01;75.99;97730.38;4985057;28;20049;-73
2023/09/09 05:26:06;;;;;;;0.20;0.20;;;;;;;13.00;76.13;97728.72;4984159;28;20050;-73
2023/09/09 05:28:34;;;;;;;0.20;0.20;;;;;;;12.96;76.55;97731.03;4969609;28;20073;-72
2023/09/09 05:31:05;;;;;;;0.22;0.22;;;;;;;13.17;76.07;97736.19;4991114;28;20042;-73
2023/09/09 05:33:33;;;;;;;0.30;0.30;;;;;;;13.18;75.65;97735.13;4968579;28;20096;-73
2023/09/09 05:36:01;;;;;;;0.20;0.20;;;;;;;13.06;76.36;97730.59;4973584;28;20042;-73
2023/09/09 05:38:29;;;;;;;0.13;0.13;;;;;;;13.16;76.40;97733.72;4968524;28;20061;-71
2023/09/09 05:40:57;;;;;;;0.25;0.25;;;;;;;13.14;76.99;97741.13;4981784;28;20070;-73
2023/09/09 05:43:27;;;;;;;0.30;0.30;;;;;;;13.13;77.14;97734.91;4985097;28;20188;-72
2023/09/09 05:45:59;;;;;;;0.10;0.10;;;;;;;13.21;76.69;97739.28;4982645;28;20185;-72
2023/09/09 05:48:28;;;;;;;0.20;0.20;;;;;;;13.30;77.04;97735.34;4987451;28;20500;-73
2023/09/09 05:50:56;;;;;;;0.20;0.20;;;;;;;13.44;76.07;97742.34;4970176;28;20051;-71
2023/09/09 05:53:23;;;;;;;0.17;0.17;;;;;;;13.53;76.06;97732.22;4981246;28;20073;-72
2023/09/09 05:55:52;;;;;;;0.13;0.13;;;;;;;13.56;75.90;97739.84;4971039;28;20509;-72
2023/09/09 05:58:20;;;;;;;0.22;0.22;;;;;;;13.65;75.78;97738.59;4967772;28;20038;-71
2023/09/09 06:00:49;;;;;;;0.35;0.35;;;;;;;13.73;75.78;97738.34;4968643;28;20466;-72
2023/09/09 06:03:16;;;;;;;0.30;0.30;;;;;;;13.87;75.19;97748.00;4981475;28;20050;-72
2023/09/09 06:05:45;;;;;;;0.22;0.22;;;;;;;13.93;75.02;97744.47;4971701;28;20516;-72
2023/09/09 06:08:13;;;;;;;0.13;0.13;;;;;;;14.00;75.05;97739.09;4971202;28;20042;-74
2023/09/09 06:10:41;;;;;;;0.03;0.03;;;;;;;14.12;74.82;97741.94;4970581;28;20477;-72
2023/09/09 06:13:09;;;;;;;0.13;0.13;;;;;;;14.18;74.78;97744.59;4973382;28;20133;-72
2023/09/09 06:15:36;;;;;;;0.22;0.22;;;;;;;14.34;74.76;97748.63;4987844;28;20041;-72
2023/09/09 06:18:06;;;;;;;0.30;0.30;;;;;;;14.48;74.48;97738.66;4985830;28;20054;-72
2023/09/09 06:20:33;;;;;;;0.13;0.13;;;;;;;14.60;74.18;97745.00;4985920;28;20030;-71
2023/09/09 06:23:02;;;;;;;0.10;0.10;;;;;;;14.63;73.97;97742.72;4972972;28;20421;-72
2023/09/09 06:25:29;;;;;;;0.40;0.40;;;;;;;14.74;73.70;97745.75;4988904;28;20066;-71
2023/09/09 06:27:57;;;;;;;0.20;0.20;;;;;;;14.94;73.30;97749.13;4968613;28;20157;-72
2023/09/09 06:30:25;;;;;;;0.32;0.32;;;;;;;14.97;73.01;97751.34;4982890;28;20154;-72
2023/09/09 06:32:53;;;;;;;0.20;0.20;;;;;;;15.00;73.34;97746.38;4989561;28;20035;-72
2023/09/09 06:35:22;;;;;;;0.20;0.20;;;;;;;15.13;73.00;97752.69;4972462;28;20418;-72
2023/09/09 06:37:50;;;;;;;0.32;0.32;;;;;;;15.22;72.74;97748.69;4970712;28;20042;-72
2023/09/09 06:40:17;;;;;;;0.30;0.30;;;;;;;15.39;72.72;97747.88;4982683;28;20038;-72
2023/09/09 06:42:45;;;;;;;0.03;0.03;;;;;;;15.47;72.30;97749.47;4987087;28;20133;-72
2023/09/09 06:45:13;;;;;;;0.20;0.20;;;;;;;15.57;72.31;97755.22;4988412;28;20391;-72
2023/09/09 06:47:43;;;;;;;0.13;0.13;;;;;;;15.69;72.31;97755.28;4993086;28;20038;-72
2023/09/09 06:50:11;;;;;;;0.32;0.32;;;;;;;15.77;72.16;97758.53;4986579;28;20449;-72
2023/09/09 06:52:40;;;;;;;0.13;0.13;;;;;;;15.89;71.67;97746.97;4978943;28;20486;-72
2023/09/09 06:55:08;;;;;;;0.17;0.17;;;;;;;16.06;71.52;97758.81;4990064;28;20050;-72
2023/09/09 06:57:36;;;;;;;0.13;0.13;;;;;;;16.23;71.36;97756.31;4988721;28;20045;-72
2023/09/09 07:00:08;;;;;;;0.10;0.10;;;;;;;16.42;71.10;97758.75;4990986;28;20474;-72
2023/09/09 07:02:35;;;;;;;0.22;0.22;;;;;;;16.50;71.14;97753.06;4990556;28;20052;-73
2023/09/09 07:05:03;;;;;;;0.20;0.20;;;;;;;16.62;70.60;97763.06;4986393;28;20379;-71
2023/09/09 07:07:31;;;;;;;0.22;0.22;;;;;;;16.72;70.53;97760.66;4971828;28;20042;-71
2023/09/09 07:10:10;;;;;;;0.22;0.22;;;;;;;16.89;70.40;97767.06;4989435;28;20092;-71
2023/09/09 07:12:38;;;;;;;0.13;0.13;;;;;;;17.02;70.35;97768.72;4970869;28;20432;-71
2023/09/09 07:15:06;;;;;;;0.22;0.22;;;;;;;17.11;69.63;97756.56;4986269;28;20053;-73
2023/09/09 07:17:34;;;;;;;0.13;0.13;;;;;;;17.23;69.78;97760.09;4985138;28;20065;-72
2023/09/09 07:20:02;;;;;;;0.17;0.17;;;;;;;17.33;69.25;97754.13;4977438;28;20081;-73
2023/09/09 07:22:30;;;;;;;0.10;0.10;;;;;;;17.44;69.14;97758.69;4989450;28;20134;-73
2023/09/09 07:24:57;;;;;;;0.20;0.20;;;;;;;17.53;68.79;97758.13;4989533;28;20524;-73
2023/09/09 07:27:26;;;;;;;0.13;0.13;;;;;;;17.65;68.56;97755.41;4988100;28;20101;-73
2023/09/09 07:29:54;;;;;;;0.13;0.13;;;;;;;17.75;68.76;97761.06;4982947;28;20137;-72
2023/09/09 07:32:22;;;;;;;0.10;0.10;;;;;;;17.85;68.23;97753.19;4988654;28;20042;-72
2023/09/09 07:34:49;;;;;;;0.30;0.30;;;;;;;17.97;68.41;97759.38;4985383;28;20050;-72
2023/09/09 07:37:17;;;;;;;0.13;0.13;;;;;;;18.06;67.71;97753.63;4988866;28;20570;-72
2023/09/09 07:39:46;;;;;;;0.03;0.03;;;;;;;18.16;67.40;97757.38;4987143;28;20041;-73
2023/09/09 07:42:13;;;;;;;0.55;0.13;;;;;;;18.30;66.90;97763.28;4988837;28;20418;-72
2023/09/09 07:44:43;;;;;;;0.13;0.13;;;;;;;18.39;67.01;97751.03;4984408;28;20054;-72
2023/09/09 07:47:11;;;;;;;0.22;0.22;;;;;;;18.51;66.69;97753.72;4992826;28;20038;-72
2023/09/09 07:49:39;;;;;;;0.00;0.00;;;;;;;18.61;65.99;97767.44;4988602;28;20462;-73
2023/09/09 07:52:07;;;;;;;0.13;0.13;;;;;;;18.72;65.38;97757.66;4983236;28;20046;-73
2023/09/09 07:54:34;;;;;;;0.20;0.20;;;;;;;18.91;64.89;97759.06;4990498;28;20057;-72
2023/09/09 07:57:02;;;;;;;0.20;0.20;;;;;;;19.01;65.09;97756.53;4991711;28;20043;-72
2023/09/09 07:59:30;;;;;;;0.10;0.10;;;;;;;19.10;65.00;97755.09;4992017;28;20441;-72
2023/09/09 08:02:02;;;;;;;0.13;0.13;;;;;;;19.20;64.58;97751.75;4979621;28;20049;-72
2023/09/09 08:04:30;;;;;;;0.13;0.13;;;;;;;19.28;63.86;97749.44;4990868;28;20074;-72
2023/09/09 08:06:57;;;;;;;0.13;0.13;;;;;;;19.48;63.70;97748.13;4989302;28;20074;-72
2023/09/09 08:09:26;;;;;;;0.13;0.13;;;;;;;19.63;63.03;97742.94;4981990;28;20038;-72
2023/09/09 08:11:54;;;;;;;0.13;0.13;;;;;;;19.73;62.57;97753.91;4984163;28;20112;-73
2023/09/09 08:14:21;;;;;;;0.03;0.03;;;;;;;19.83;63.61;97745.94;4991962;28;20509;-75
2023/09/09 08:16:49;;;;;;;0.03;0.03;;;;;;;19.95;61.88;97743.13;4990970;28;20374;-72
2023/09/09 08:19:18;;;;;;;0.13;0.13;;;;;;;20.16;60.62;97745.84;4992552;28;20137;-72
2023/09/09 08:21:46;;;;;;;0.10;0.10;;;;;;;20.36;60.17;97744.47;4987625;28;20527;-72
2023/09/09 08:24:14;;;;;;;0.10;0.10;;;;;;;20.49;59.82;97739.50;4982907;28;20053;-73
2023/09/09 08:26:42;;;;;;;0.20;0.20;;;;;;;20.62;59.21;97734.75;4983772;28;20057;-72
2023/09/09 08:29:08;;;;;;;0.20;0.13;;;;;;;20.72;59.05;97740.28;4977536;28;20144;-72
2023/09/09 08:31:36;;;;;;;0.00;0.00;;;;;;;20.84;58.56;97738.22;4987950;28;20042;-73
2023/09/09 08:34:04;;;;;;;0.10;0.10;;;;;;;20.97;58.68;97745.13;4981850;28;20062;-74
2023/09/09 08:36:33;;;;;;;0.10;0.10;;;;;;;21.09;57.10;97737.63;4991364;28;20065;-72
2023/09/09 08:39:01;;;;;;;0.05;0.05;;;;;;;21.27;56.05;97728.31;4988071;28;20125;-73
2023/09/09 08:41:40;;;;;;;0.05;0.05;;;;;;;21.49;54.61;97732.53;4987311;28;20129;-73
2023/09/09 08:44:13;;;;;;;0.10;0.10;;;;;;;21.67;53.51;97741.38;4981600;28;20051;-72
2023/09/09 08:46:41;;;;;;;0.10;0.10;;;;;;;21.83;53.38;97737.66;4986325;28;20046;-72
2023/09/09 08:49:11;;;;;;;0.10;0.10;;;;;;;21.95;53.71;97747.25;4986162;28;20190;-73
2023/09/09 08:51:44;;;;;;;0.10;0.10;;;;;;;22.03;52.16;97745.94;4987693;28;20117;-73
2023/09/09 08:54:12;;;;;;;0.15;0.15;;;;;;;22.11;52.17;97737.31;4984286;28;20046;-72
2023/09/09 08:56:40;;;;;;;0.13;0.13;;;;;;;22.26;52.57;97745.50;4992122;28;20053;-73
2023/09/09 08:59:07;;;;;;;0.10;0.10;;;;;;;22.32;52.16;97744.44;4990654;28;20560;-73
2023/09/09 09:01:36;;;;;;;0.00;0.00;;;;;;;22.39;51.94;97744.22;4991194;28;20042;-73
2023/09/09 09:04:04;;;;;;;0.03;0.03;;;;;;;22.46;51.57;97744.78;4988511;28;20046;-72
2023/09/09 09:06:34;;;;;;;0.03;0.03;;;;;;;22.54;51.84;97740.69;4988721;28;20046;-72
2023/09/09 09:09:04;;;;;;;0.10;0.10;;;;;;;22.58;52.05;97742.63;4989248;28;20410;-72
2023/09/09 09:11:32;;;;;;;0.13;0.13;;;;;;;22.68;51.71;97742.66;4988448;28;20044;-72
2023/09/09 09:14:06;;;;;;;0.03;0.03;;;;;;;22.75;52.35;97741.56;4984061;28;20042;-72
2023/09/09 09:16:38;;;;;;;0.10;0.10;;;;;;;22.83;52.13;97743.81;4981006;28;20050;-71
2023/09/09 09:19:06;;;;;;;0.10;0.10;;;;;;;22.91;52.48;97748.72;4987289;28;20050;-73
2023/09/09 09:21:35;;;;;;;0.20;0.20;;;;;;;22.96;51.49;97748.72;4984325;28;20050;-72
2023/09/09 09:24:04;;;;;;;0.03;0.03;;;;;;;22.96;51.87;97746.81;4988797;28;20050;-72
2023/09/09 09:26:32;;;;;;;0.03;0.03;;;;;;;23.03;52.28;97750.13;4988715;28;20042;-71
2023/09/09 09:29:04;;;;;;;0.05;0.05;;;;;;;23.18;51.29;97740.31;4986188;28;20050;-72
2023/09/09 09:31:33;;;;;;;0.10;0.10;;;;;;;23.31;51.55;97737.84;4987213;28;20089;-72
2023/09/09 09:34:00;;;;;;;0.13;0.13;;;;;;;23.34;51.43;97740.03;4984584;28;20077;-72
2023/09/09 09:36:28;;;;;;;0.15;0.10;;;;;;;23.40;50.76;97733.50;4988506;28;20046;-72
2023/09/09 09:38:56;;;;;;;0.10;0.10;;;;;;;23.49;51.68;97735.66;4985978;28;20043;-73
2023/09/09 09:41:30;;;;;;;0.10;0.10;;;;;;;23.53;49.53;97734.88;4988385;28;20525;-72
2023/09/09 09:43:58;;;;;;;0.05;0.05;;;;;;;23.60;48.85;97731.88;4988351;28;20052;-73
2023/09/09 09:46:27;;;;;;;0.10;0.10;;;;;;;23.62;49.17;97725.06;4987261;28;20058;-73
2023/09/09 09:48:55;;;;;;;0.03;0.03;;;;;;;23.63;49.45;97734.88;4984515;28;20061;-70
2023/09/09 09:51:23;;;;;;;0.10;0.10;;;;;;;23.83;49.18;97736.72;4980462;28;20046;-73
2023/09/09 09:53:52;;;;;;;0.10;0.10;;;;;;;23.96;48.72;97733.44;4984655;28;20038;-71
2023/09/09 09:56:20;;;;;;;0.10;0.10;;;;;;;24.05;48.47;97736.41;4991262;28;20057;-74
2023/09/09 09:58:50;;;;;;;0.10;0.10;;;;;;;24.13;48.10;97725.72;4990333;28;20043;-75
2023/09/09 10:01:18;;;;;;;0.17;0.10;;;;;;;24.26;48.50;97729.81;4990367;28;20074;-73
2023/09/09 10:03:51;;;;;;;0.10;0.10;;;;;;;24.48;46.96;97726.72;4987028;28;20047;-73
2023/09/09 10:06:26;;;;;;;0.20;0.20;;;;;;;24.64;47.17;97711.88;4985287;28;20066;-74
2023/09/09 10:08:58;;;;;;;0.00;0.00;;;;;;;24.92;46.17;97718.53;4984484;28;20046;-73
2023/09/09 10:11:29;;;;;;;0.00;0.00;;;;;;;24.96;45.96;97718.78;4987869;28;20391;-71
2023/09/09 10:14:06;;;;;;;0.03;0.03;;;;;;;25.10;45.41;97714.31;4987499;28;20043;-73
2023/09/09 10:16:34;;;;;;;0.10;0.03;;;;;;;25.26;45.10;97715.00;4991180;28;20038;-73
2023/09/09 10:19:03;;;;;;;0.10;0.10;;;;;;;25.35;44.00;97718.75;4982815;28;20441;-73
2023/09/09 10:21:31;;;;;;;0.03;0.03;;;;;;;25.32;44.09;97711.97;4988847;28;20169;-73
2023/09/09 10:24:10;;;;;;;0.10;0.10;;;;;;;25.32;44.88;97714.69;4981529;28;20057;-73
2023/09/09 10:26:38;;;;;;;0.13;0.13;;;;;;;25.37;44.59;97705.63;4991016;28;20069;-73
2023/09/09 10:29:07;;;;;;;0.05;0.05;;;;;;;25.42;44.29;97705.59;4979917;28;20070;-73
2023/09/09 10:31:36;;;;;;;0.08;0.08;;;;;;;25.71;43.52;97706.41;4987672;28;20081;-73
2023/09/09 10:34:04;;;;;;;0.10;0.10;;;;;;;26.00;42.52;97713.75;4980521;28;20051;-71
2023/09/09 10:36:36;;;;;;;0.00;0.00;;;;;;;26.04;42.08;97707.44;4989886;28;20049;-73
2023/09/09 10:39:25;;;;;;;0.10;0.10;;;;;;;25.94;41.85;97697.41;4988554;28;20050;-73
2023/09/09 10:41:54;;;;;;;0.00;0.00;;;;;;;26.33;41.33;97692.88;4987451;28;20212;-73
2023/09/09 10:44:23;;;;;;;0.10;0.10;;;;;;;26.54;41.63;97697.78;4987097;28;20069;-73
2023/09/09 10:46:54;;;;;;;0.00;0.00;;;;;;;26.99;40.16;97701.00;4988033;28;20061;-71
2023/09/09 10:49:24;;;;;;;0.00;0.00;;;;;;;27.11;40.04;97687.63;4985803;28;20414;-71
2023/09/09 10:51:52;;;;;;;0.00;0.00;;;;;;;27.49;39.21;97699.31;4986957;28;20042;-73
2023/09/09 10:54:22;;;;;;;0.05;0.05;;;;;;;27.69;38.43;97692.69;4987369;28;20057;-73
2023/09/09 10:56:51;;;;;;;0.13;0.13;;;;;;;27.77;37.78;97697.47;4985140;28;20042;-73
2023/09/09 10:59:21;;;;;;;0.10;0.10;;;;;;;27.88;38.84;97693.41;4990163;28;20121;-73
2023/09/09 11:02:10;;;;;;;0.00;0.00;;;;;;;28.14;37.28;97689.03;4988534;28;20054;-71
2023/09/09 11:04:38;;;;;;;0.00;0.00;;;;;;;28.23;37.02;97688.34;4988217;28;20044;-72
2023/09/09 11:07:08;;;;;;;0.10;0.10;;;;;;;28.20;37.20;97687.03;4987361;28;20038;-71
2023/09/09 11:09:36;;;;;;;0.03;0.03;;;;;;;28.10;37.45;97685.28;4986074;28;20434;-74
2023/09/09 11:12:14;;;;;;;0.05;0.05;;;;;;;28.03;37.62;97678.59;4990620;28;20121;-73
2023/09/09 11:14:43;;;;;;;;;;;;;;;27.86;37.49;97681.09;4990944;28;20046;-74
2023/09/09 11:17:13;;;;;;;0.00;0.00;;;;;;;27.90;38.27;97680.19;4991016;28;20413;-73
2023/09/09 11:19:42;;;;;;;0.08;0.08;;;;;;;28.04;38.33;97683.75;4990781;28;20129;-73
2023/09/09 11:22:11;;;;;;;0.10;0.10;;;;;;;28.73;35.67;97678.19;4992116;28;20069;-72
2023/09/09 11:24:38;;;;;;;0.10;0.10;;;;;;;29.04;35.71;97672.81;4990387;28;20054;-73
2023/09/09 11:27:07;;;;;;;0.10;0.05;;;;;;;29.12;35.26;97674.78;4987354;28;20121;-73
2023/09/09 11:29:35;;;;;;;0.10;0.10;;;;;;;29.22;34.63;97682.78;4992889;28;20046;-72
2023/09/09 11:32:09;;;;;;;0.00;0.00;;;;;;;29.32;34.57;97685.28;4984511;28;20055;-74
2023/09/09 11:34:38;;;;;;;0.05;0.05;;;;;;;29.40;34.62;97690.06;4989566;28;20065;-73
2023/09/09 11:37:06;;;;;;;0.00;0.00;;;;;;;29.39;34.22;97680.19;4990598;28;20049;-72
2023/09/09 11:39:39;;;;;;;0.00;0.00;;;;;;;29.44;34.95;97685.56;4993138;28;20092;-73
2023/09/09 11:42:07;;;;;;;0.17;0.17;;;;;;;29.76;33.53;97680.88;4992074;28;20038;-72